Terminal Aerodrome Forecast
Issued by NWS Northern Indiana

Home | Current Version | Previous Version | Text Only | Print | Product List | Glossary On
Versions: 1 2 3 4 5 6 7 8 9 10 11 12 13 14 15
000
FTUS43 KIWX 061916 AAA
TAFFWA
TAF AMD
KFWA 061916Z 0619/0718 29004KT 6SM BR SCT009 OVC015
      TEMPO 0619/0621 OVC009
     FM062100 30006KT 6SM BR SCT015 BKN025
     FM062300 28011KT P6SM BKN010
     FM070500 26011KT P6SM SCT035 BKN120=

USA.gov is the U.S. government's official web portal to all federal, state and local government web resources and services.